Weather observations for the past three days for
Grove, Grove Municipal Airport
Imperial (Metric)
Date Time (cdt) Wind (mph) Vis. (mi.) Weather Sky Cond. Temperature (ºF) Relative Humidity Wind Chill (°F) Heat Index (°F) Pressure Precipitation (in)
Air Dwpt 6 hour altimeter (in) sea level (mb) 1 hr 3 hr 6 hr
Max. Min.
05 14:35 NE 12 G 23 10.00 Overcast OVC015 53.6 50 88% 29.77 0.0
05 14:15 NE 8 G 17 10.00 Overcast OVC016 53.6 51.8 94% 29.77 0.0
05 13:55 NE 12 G 18 10.00 Overcast OVC017 55.4 51.8 88% 29.75 0.0
05 13:35 NE 14 G 20 10.00 Overcast OVC017 55.4 51.8 88% 29.75 0.0
05 13:15 N 9 G 16 10.00 Overcast OVC017 55.4 51.8 88% 29.75 0.0
05 12:55 NE 9 G 18 10.00 Overcast OVC017 55.4 53.6 94% 29.74 0.0
05 12:35 NE 13 G 22 10.00 Overcast BKN014 OVC019 55.4 51.8 88% 29.73 0.0
05 11:55 NE 13 G 23 10.00 Overcast BKN014 OVC018 55.4 53.6 94% 29.72 0.0
05 11:35 NE 12 G 17 10.00 Overcast OVC015 55.4 55.4 100% 29.73 0.0
05 11:15 NE 9 G 21 10.00 Overcast OVC013 57.2 55.4 94% 29.71 0.0
05 10:55 NE 9 G 20 10.00 Overcast OVC012 57.2 57.2 100% 29.71 0.0
05 10:35 NE 8 G 15 10.00 Overcast BKN013 OVC018 59 57.2 94% 29.71 0.0
05 10:15 NE 10 G 20 10.00 Overcast BKN010 BKN015 OVC019 59 59 100% 29.7 0.0
05 09:55 NE 9 G 18 10.00 Overcast OVC008 60.8 59 94% 29.69 0.0
05 09:35 NE 9 G 17 10.00 Overcast BKN009 BKN026 OVC037 62.6 62.6 100% 29.68 0.0
05 09:15 NE 8 10.00 Overcast FEW009 FEW023 OVC039 62.6 62.6 100% 29.67 0.0
05 08:55 NE 8 G 16 10.00 Overcast OVC041 62.6 62.6 100% 29.68 0.0 0.01
05 08:35 Vrbl 7 G 13 10.00 Overcast OVC038 62.6 62.6 100% 29.68 0.0
05 08:15 E 8 10.00 Overcast OVC039 62.6 62.6 100% 29.68 0.0
05 07:35 Vrbl 6 10.00 Overcast OVC042 62.6 62.6 100% 29.68 0.0
05 07:15 NE 7 10.00 Overcast BKN037 OVC043 62.6 62.6 100% 29.67 0.0
05 06:55 Vrbl 5 10.00 Overcast OVC035 62.6 62.6 100% 29.66 0.0
05 06:15 E 3 10.00 Overcast FEW045 BKN055 OVC065 62.6 62.6 100% 29.64 0.0
05 05:55 SE 7 10.00 Overcast FEW047 BKN070 OVC075 62.6 62.6 100% 29.63 0.0
05 05:35 Vrbl 7 G 13 10.00 Overcast FEW013 SCT039 OVC070 62.6 62.6 100% 29.63 0.0
05 05:15 SE 8 G 14 10.00 Overcast SCT037 BKN047 OVC060 62.6 62.6 100% 29.64 0.0
05 04:55 Vrbl 7 G 17 10.00 Overcast BKN036 OVC041 60.8 60.8 100% 29.65 0.0
05 04:35 SE 9 10.00 Overcast SCT034 OVC040 60.8 60.8 100% 29.66 0.0
05 04:15 Vrbl 6 10.00 Overcast OVC038 60.8 60.8 100% 29.67 0.0
05 03:55 Vrbl 7 10.00 Light Drizzle FEW018 SCT034 OVC040 60.8 60.8 100% 29.67 0.0 0.02
05 03:35 Vrbl 6 10.00 Light Drizzle FEW026 BKN040 OVC047 60.8 60.8 100% 29.68 0.0
05 03:15 Vrbl 6 10.00 Overcast FEW007 SCT041 OVC049 60.8 60.8 100% 29.68 0.0
05 02:55 NE 8 10.00 Thunderstorm in Vicinity FEW007 SCT033 OVC055 59 59 100% 29.7 0.0 0.17
05 02:35 E 5 10.00 Thunderstorm in Vicinity FEW005 SCT030 BKN043 59 59 100% 29.71 0.0
05 02:15 Vrbl 5 G 16 8.00 Thunderstorm Light Drizzle BKN004 BKN018 OVC065 59 59 100% 29.72 0.0
05 01:55 NE 9 G 24 8.00 Thunderstorm Light Drizzle BKN004 BKN017 BKN027 60.8 60.8 100% 29.73 0.0 0.88
05 01:35 NE 17 G 48 2.00 Thunderstorm Light Drizzle Fog/Mist SCT004 BKN020 OVC065 62.6 60.8 94% 29.7 0.0
05 01:15 E 8 G 20 10.00 Thunderstorm in Vicinity FEW009 SCT045 BKN065 62.6 60.8 94% 29.66 0.0
05 00:55 SE 15 G 24 10.00 Thunderstorm Light Drizzle FEW019 SCT041 BKN065 64.4 60.8 88% 29.64 0.0 0.06
05 00:35 S 21 G 30 10.00 Thunderstorm in Vicinity and Breezy FEW022 SCT033 BKN049 64.4 60.8 88% 29.64 0.0
05 00:15 S 16 G 28 10.00 Light Drizzle SCT026 BKN042 OVC075 66.2 59 78% 29.65 0.0
04 23:55 S 9 10.00 Overcast OVC043 69.8 57.2 64% 29.68 0.0
04 23:35 S 9 G 15 10.00 Mostly Cloudy BKN043 68 57.2 69% 29.67 0.0
04 23:15 S 9 10.00 A Few Clouds FEW043 68 57.2 69% 29.67 0.0
04 22:55 S 6 G 14 10.00 Partly Cloudy SCT045 66.2 57.2 73% 29.67 0.0
04 22:35 S 5 10.00 Mostly Cloudy BKN046 66.2 57.2 73% 29.69 0.0
04 22:15 SE 6 10.00 A Few Clouds FEW047 66.2 57.2 73% 29.69 0.0
04 21:55 S 6 10.00 A Few Clouds FEW050 66.2 57.2 73% 29.69 0.0
04 21:35 S 7 10.00 A Few Clouds FEW050 68 57.2 69% 29.69 0.0
04 21:15 Vrbl 6 10.00 Fair CLR 68 57.2 69% 29.68 0.0
04 20:55 S 6 10.00 Fair CLR 68 57.2 69% 29.68 0.0
04 20:35 S 6 10.00 Fair CLR 69.8 57.2 64% 29.68 0.0
04 20:15 S 7 10.00 Fair CLR 71.6 55.4 57% 29.68 0.0
04 19:55 S 9 10.00 Fair CLR 71.6 55.4 57% 29.67 0.0
04 19:35 S 9 G 15 10.00 Fair CLR 73.4 55.4 53% 29.67 0.0
04 19:15 S 13 10.00 Fair CLR 73.4 55.4 53% 29.67 0.0
04 18:55 S 17 G 23 10.00 Fair CLR 75.2 55.4 50% 78 29.67 0.0
04 18:35 S 15 G 21 10.00 Fair CLR 77 55.4 47% 79 29.66 0.0
04 18:15 SW 17 G 24 10.00 Fair CLR 77 55.4 47% 79 29.66 0.0
04 17:55 S 17 G 23 10.00 Fair CLR 78.8 55.4 45% 79 29.66 0.0
04 17:35 S 18 G 29 10.00 Fair CLR 78.8 55.4 45% 79 29.65 0.0
04 17:15 S 18 10.00 Fair CLR 78.8 55.4 45% 79 29.65 0.0
04 16:55 S 14 G 23 10.00 Fair CLR 78.8 55.4 45% 79 29.66 0.0
04 16:35 S 17 G 28 10.00 Fair CLR 78.8 55.4 45% 79 29.66 0.0
04 16:15 S 16 G 25 10.00 Fair CLR 80.6 57.2 45% 81 29.67 0.0
04 15:55 S 18 G 24 10.00 Fair CLR 80.6 57.2 45% 81 29.67 0.0
04 15:35 S 17 G 29 10.00 Fair CLR 80.6 57.2 45% 81 29.68 0.0
04 15:15 S 18 G 28 10.00 Fair CLR 80.6 57.2 45% 81 29.69 0.0
04 14:55 S 20 G 25 10.00 Fair CLR 80.6 57.2 45% 81 29.7 0.0
04 14:35 S 18 G 33 10.00 Fair CLR 80.6 57.2 45% 81 29.7 0.0
04 14:15 S 22 G 33 10.00 Fair and Breezy CLR 80.6 57.2 45% 81 29.7 0.0
04 13:55 SW 18 G 30 10.00 Fair CLR 80.6 57.2 45% 81 29.71 0.0
04 13:35 S 20 G 30 10.00 Fair CLR 80.6 57.2 45% 81 29.71 0.0
04 13:15 SW 18 G 33 10.00 Fair CLR 78.8 55.4 45% 79 29.72 0.0
04 12:55 S 22 G 31 10.00 Fair and Breezy CLR 78.8 55.4 45% 79 29.72 0.0
04 12:35 SW 17 G 28 10.00 Fair CLR 78.8 55.4 45% 79 29.73 0.0
04 12:15 S 24 10.00 Fair and Breezy CLR 77 55.4 47% 79 29.73 0.0
04 11:55 SW 17 G 32 10.00 Fair CLR 77 53.6 44% 78 29.74 0.0
04 11:35 SW 20 G 31 10.00 Fair CLR 77 53.6 44% 78 29.75 0.0
04 11:15 SW 17 G 31 10.00 Fair CLR 75.2 51.8 44% 78 29.75 0.0
04 10:55 S 21 G 30 10.00 Fair and Breezy CLR 75.2 53.6 47% 78 29.75 0.0
04 10:35 SW 20 G 25 10.00 Fair CLR 73.4 51.8 47% 29.76 0.0
04 10:15 SW 18 G 28 10.00 Fair CLR 73.4 51.8 47% 29.76 0.0
04 09:55 SW 21 G 30 10.00 Fair and Breezy CLR 71.6 51.8 50% 29.76 0.0
04 09:35 S 20 G 29 10.00 Fair CLR 69.8 50 50% 29.77 0.0
04 09:15 SW 24 G 30 10.00 Fair and Breezy CLR 69.8 50 50% 29.77 0.0
04 08:55 SW 20 G 26 10.00 Fair CLR 68 50 53% 29.78 0.0
04 08:35 S 17 G 26 10.00 Fair CLR 68 50 53% 29.78 0.0
04 08:15 SW 18 10.00 Fair CLR 66.2 50 56% 29.79 0.0
04 07:55 S 16 G 22 10.00 Fair CLR 66.2 48.2 52% 29.8 0.0
04 07:35 SW 15 10.00 Fair CLR 64.4 48.2 56% 29.8 0.0
04 07:15 S 12 G 20 10.00 Fair CLR 62.6 48.2 60% 29.8 0.0
04 06:55 SW 12 10.00 Fair CLR 62.6 48.2 60% 29.8 0.0
04 06:35 SW 14 10.00 Fair CLR 62.6 48.2 60% 29.8 0.0
04 06:15 SW 13 G 20 10.00 Fair CLR 62.6 48.2 60% 29.8 0.0
04 05:55 S 13 10.00 Fair CLR 62.6 48.2 60% 29.8 0.0
04 05:35 SW 10 10.00 Fair CLR 62.6 46.4 56% 29.8 0.0
04 05:15 S 15 10.00 Fair CLR 62.6 46.4 56% 29.81 0.0
04 04:55 S 13 10.00 Fair CLR 64.4 46.4 52% 29.81 0.0
04 04:35 S 10 G 17 10.00 Fair CLR 64.4 46.4 52% 29.81 0.0
04 04:15 S 14 G 21 10.00 Fair CLR 64.4 46.4 52% 29.82 0.0
04 03:55 SW 10 G 17 10.00 Fair CLR 66.2 46.4 49% 29.82 0.0
04 03:35 SW 13 G 20 10.00 Fair CLR 66.2 46.4 49% 29.82 0.0
04 03:15 SW 13 10.00 Fair CLR 66.2 44.6 46% 29.82 0.0
04 02:55 SW 13 G 20 10.00 Fair CLR 66.2 44.6 46% 29.82 0.0
04 02:35 SW 16 G 23 10.00 Fair CLR 66.2 44.6 46% 29.83 0.0
04 02:15 S 14 10.00 Fair CLR 66.2 44.6 46% 29.83 0.0
04 01:55 S 12 G 18 10.00 Fair CLR 66.2 44.6 46% 29.84 0.0
04 01:35 S 12 G 17 10.00 Fair CLR 68 44.6 43% 29.85 0.0
04 01:15 SW 14 10.00 Fair CLR 68 46.4 46% 29.85 0.0
04 00:55 SW 14 G 21 10.00 Fair CLR 68 46.4 46% 29.86 0.0
04 00:35 SW 14 G 21 10.00 Fair CLR 69.8 46.4 43% 29.86 0.0
04 00:15 SW 16 G 22 10.00 Fair CLR 69.8 46.4 43% 29.86 0.0
03 23:55 SW 14 G 22 10.00 Fair CLR 69.8 48.2 46% 29.86 0.0
03 23:35 SW 14 G 20 10.00 Fair CLR 68 48.2 49% 29.86 0.0
03 23:15 SW 14 10.00 Fair CLR 69.8 46.4 43% 29.86 0.0
03 22:55 S 12 G 18 10.00 Fair CLR 69.8 46.4 43% 29.86 0.0
03 22:35 S 9 10.00 Fair CLR 68 46.4 46% 29.87 0.0
03 22:15 S 9 10.00 Fair CLR 69.8 46.4 43% 29.87 0.0
03 21:55 S 10 10.00 Fair CLR 69.8 46.4 43% 29.86 0.0
03 21:35 S 9 10.00 Fair CLR 69.8 46.4 43% 29.86 0.0
03 21:15 S 9 10.00 Fair CLR 69.8 46.4 43% 29.86 0.0
03 20:55 S 8 10.00 Fair CLR 69.8 46.4 43% 29.85 0.0
03 20:35 S 7 10.00 Fair CLR 69.8 48.2 46% 29.85 0.0
03 20:15 S 8 10.00 Fair CLR 71.6 46.4 41% 29.85 0.0
03 19:55 S 8 10.00 Fair CLR 73.4 48.2 41% 29.84 0.0
03 19:35 S 9 10.00 Fair CLR 75.2 50 41% 78 29.85 0.0
03 19:15 S 8 G 15 10.00 Fair CLR 77 50 39% 78 29.85 0.0
03 18:55 SW 12 10.00 Fair CLR 78.8 50 37% 79 29.86 0.0
03 18:35 SW 12 G 18 10.00 Fair CLR 80.6 48.2 32% 80 29.86 0.0
03 18:15 SW 12 G 22 10.00 Fair CLR 80.6 50 34% 80 29.87 0.0
03 17:55 SW 14 G 21 10.00 Fair CLR 80.6 48.2 32% 80 29.87 0.0
03 17:35 SW 14 G 21 10.00 Fair CLR 80.6 46.4 30% 80 29.88 0.0
03 17:15 SW 14 G 23 10.00 Fair CLR 80.6 46.4 30% 80 29.88 0.0
03 16:55 W 14 10.00 Light Drizzle CLR 80.6 44.6 28% 79 29.88 0.0
03 16:35 SW 16 10.00 Fair CLR 82.4 42.8 25% 80 29.89 0.0
03 16:15 SW 12 G 18 10.00 Fair CLR 82.4 44.6 26% 81 29.9 0.0
03 15:55 SW 12 G 18 10.00 Fair CLR 82.4 48.2 30% 81 29.91 0.0
03 15:35 SW 15 10.00 Fair CLR 80.6 48.2 32% 80 29.92 0.0
03 15:15 S 12 G 20 10.00 Fair CLR 80.6 48.2 32% 80 29.93 0.0
03 14:55 SW 15 G 21 10.00 Fair CLR 80.6 50 34% 80 29.94 0.0
03 14:35 SW 14 G 21 10.00 Fair CLR 80.6 50 34% 80 29.95 0.0
03 14:15 SW 15 G 23 10.00 Fair CLR 80.6 50 34% 80 29.96 0.0
03 13:55 SW 13 G 20 10.00 Fair CLR 78.8 50 37% 79 29.96 0.0
03 13:35 SW 14 10.00 Fair CLR 78.8 50 37% 79 29.97 0.0
03 13:15 SW 13 G 20 10.00 Fair CLR 77 50 39% 78 29.98 0.0
03 12:55 SW 12 10.00 Fair CLR 77 50 39% 78 29.99 0.0
03 12:35 SW 14 G 20 10.00 Fair CLR 75.2 50 41% 78 30 0.0
03 12:15 SW 15 G 22 10.00 Fair CLR 75.2 50 41% 78 30.01 0.0
03 11:55 S 16 10.00 Fair CLR 73.4 48.2 41% 30.01 0.0
03 11:35 SW 15 G 23 10.00 Fair CLR 71.6 48.2 44% 30.02 0.0
03 11:15 S 17 G 25 10.00 Fair CLR 71.6 46.4 41% 30.03 0.0
03 10:55 SW 18 10.00 Fair CLR 69.8 46.4 43% 30.04 0.0
03 10:35 S 13 G 18 10.00 Fair CLR 69.8 46.4 43% 30.04 0.0
03 10:15 S 20 10.00 Fair CLR 68 44.6 43% 30.04 0.0
03 09:55 S 13 G 20 10.00 Fair CLR 66.2 44.6 46% 30.05 0.0
03 09:35 S 14 10.00 Fair CLR 64.4 42.8 46% 30.06 0.0
03 09:15 S 8 G 16 10.00 Fair CLR 60.8 42.8 52% 30.07 0.0
03 08:55 S 8 G 15 10.00 Fair CLR 59 42.8 55% 30.07 0.0
03 08:35 S 8 10.00 Fair CLR 57.2 42.8 59% 30.07 0.0
03 08:15 Calm 10.00 Fair CLR 53.6 46.4 77% 30.07 0.0
03 07:55 Calm 10.00 Fair CLR 50 46.4 88% 30.08 0.0
03 07:35 Calm 10.00 Fair CLR 44.6 44.6 100% 30.07 0.0
03 07:15 Calm 10.00 Fair CLR 42.8 42.8 100% 30.07 0.0
03 06:55 Calm 10.00 Fair CLR 41 41 100% 30.07 0.0
03 06:35 Calm 10.00 Fair CLR 39.2 39.2 100% 30.07 0.0
03 06:15 Calm 10.00 Fair CLR 39.2 39.2 100% 30.07 0.0
03 05:55 NE 3 10.00 Fair CLR 41 41 100% 30.07 0.0
03 05:35 Calm 10.00 Fair CLR 39.2 39.2 100% 30.07 0.0
03 05:15 Calm 10.00 Fair CLR 39.2 39.2 100% 30.08 0.0
03 04:55 NE 3 10.00 Fair CLR 41 41 100% 30.08 0.0
03 04:35 Calm 10.00 Fair CLR 41 41 100% 30.08 0.0
03 04:15 NE 5 10.00 Fair CLR 41 41 100% 38 30.08 0.0
03 03:55 E 3 10.00 Fair CLR 41 41 100% 30.08 0.0
03 03:35 Calm 10.00 Fair CLR 41 41 100% 30.09 0.0
03 03:15 Calm 10.00 Fair CLR 41 41 100% 30.09 0.0
03 02:55 Calm 10.00 Fair CLR 41 41 100% 30.09 0.0
03 02:35 Calm 10.00 Fair CLR 41 41 100% 30.1 0.0
03 02:15 Calm 10.00 Fair CLR 41 41 100% 30.1 0.0
03 01:55 Calm 10.00 Fair CLR 41 41 100% 30.11 0.0
03 01:35 Calm 10.00 Fair CLR 42.8 42.8 100% 30.12 0.0
03 01:15 Calm 10.00 Fair CLR 42.8 42.8 100% 30.12 0.0
03 00:55 Calm 10.00 Fair CLR 42.8 42.8 100% 30.12 0.0
03 00:35 Calm 10.00 Fair CLR 42.8 42.8 100% 30.12 0.0
03 00:15 Calm 10.00 Fair CLR 42.8 42.8 100% 30.12 0.0
02 23:55 Calm 10.00 Fair CLR 44.6 44.6 100% 30.12 0.0
02 23:35 Calm 10.00 Fair CLR 44.6 44.6 100% 30.12 0.0
02 23:15 Calm 10.00 Fair CLR 46.4 46.4 100% 30.12 0.0
02 22:55 Calm 10.00 Fair CLR 46.4 44.6 93% 30.12 0.0
02 22:35 Calm 10.00 Fair CLR 48.2 44.6 87% 30.12 0.0
02 22:15 Calm 10.00 Fair CLR 48.2 44.6 87% 30.12 0.0
02 21:55 Calm 10.00 Fair CLR 50 42.8 76% 30.12 0.0
02 21:35 Calm 10.00 Fair CLR 50 42.8 76% 30.11 0.0
02 21:15 Calm 10.00 Fair CLR 51.8 42.8 72% 30.11 0.0
02 20:55 Calm 10.00 Fair CLR 53.6 41 63% 30.1 0.0
02 20:35 Calm 10.00 Fair CLR 55.4 41 59% 30.1 0.0
02 20:15 Calm 10.00 Fair CLR 59 37.4 45% 30.09 0.0
02 19:55 Calm 10.00 Fair CLR 60.8 39.2 45% 30.09 0.0
02 19:35 Calm 10.00 Fair CLR 62.6 37.4 39% 30.09 0.0
02 19:15 NW 5 10.00 Fair CLR 64.4 35.6 34% 30.09 0.0
02 18:55 NW 8 10.00 Fair CLR 64.4 33.8 32% 30.1 0.0
02 18:35 NW 6 10.00 Fair CLR 64.4 33.8 32% 30.1 0.0
02 18:15 N 9 10.00 Fair CLR 66.2 33.8 30% 30.1 0.0
02 17:55 NW 6 G 12 10.00 Fair CLR 66.2 35.6 32% 30.1 0.0
02 17:35 NW 7 G 13 10.00 Fair CLR 66.2 33.8 30% 30.1 0.0
02 17:15 N 9 G 17 10.00 Fair CLR 66.2 33.8 30% 30.1 0.0
02 16:55 NW 9 G 15 10.00 Fair CLR 66.2 32 28% 30.11 0.0
02 16:35 NW 9 G 15 10.00 Fair CLR 66.2 35.6 32% 30.11 0.0
02 16:15 NW 9 10.00 Fair CLR 66.2 35.6 32% 30.11 0.0
02 15:55 NW 12 10.00 Fair CLR 66.2 35.6 32% 30.12 0.0
02 15:35 NW 9 10.00 Fair CLR 66.2 37.4 35% 30.13 0.0
02 15:15 NW 10 G 17 10.00 Fair CLR 66.2 35.6 32% 30.13 0.0
02 14:55 NW 13 G 20 10.00 Fair CLR 66.2 33.8 30% 30.14 0.0
Date Time (cdt) Wind (mph) Vis. (mi.) Weather Sky Cond. Air Dwpt Max. Min. Relative Humidity Wind Chill (°F) Heat Index (°F) altimeter (in) sea level (mb) 1 hr 3 hr 6 hr
6 hour
Temperature (ºF) Pressure Precipitation (in)